createdAt,value
2022-12-04T00:00:31.624Z,101168.47
2022-12-04T00:03:39.165Z,101172.25
2022-12-04T00:06:46.420Z,101168.91
2022-12-04T00:09:53.531Z,101164.22
2022-12-04T00:13:00.322Z,101161.19
2022-12-04T00:16:14.353Z,101162.13
2022-12-04T00:19:21.948Z,101165.91
2022-12-04T00:22:30.349Z,101163.28
2022-12-04T00:25:41.146Z,101159.09
2022-12-04T00:28:51.824Z,101166.22
2022-12-04T00:32:00.470Z,101171.22
2022-12-04T00:35:07.866Z,101170.25
2022-12-04T00:38:16.664Z,101183.97
2022-12-04T00:41:26.019Z,101179.00
2022-12-04T00:44:33.957Z,101179.56
2022-12-04T00:47:40.796Z,101178.53
2022-12-04T00:50:46.450Z,101163.63
2022-12-04T00:53:54.401Z,101164.66
2022-12-04T00:57:00.850Z,101165.56
2022-12-04T01:00:07.213Z,101164.28
2022-12-04T01:03:13.874Z,101165.87
2022-12-04T01:06:24.025Z,101162.59
2022-12-04T01:09:30.915Z,101169.75
2022-12-04T01:12:39.284Z,101171.38
2022-12-04T01:15:47.180Z,101171.25
2022-12-04T01:19:01.673Z,101170.22
2022-12-04T01:22:09.035Z,101168.56
2022-12-04T01:25:16.101Z,101174.66
2022-12-04T01:28:22.505Z,101170.59
2022-12-04T01:31:31.812Z,101164.53
2022-12-04T01:34:38.361Z,101170.94
2022-12-04T01:37:44.521Z,101169.37
2022-12-04T01:40:54.078Z,101171.69
2022-12-04T01:44:12.143Z,101159.09
2022-12-04T01:47:18.212Z,101165.28
2022-12-04T01:50:26.447Z,101163.09
2022-12-04T01:53:34.901Z,101166.47
2022-12-04T01:56:44.437Z,101173.91
2022-12-04T01:59:53.716Z,101178.22
2022-12-04T02:03:04.307Z,101170.34
2022-12-04T02:06:11.099Z,101169.63
2022-12-04T02:09:23.118Z,101161.31
2022-12-04T02:12:41.891Z,101162.03
2022-12-04T02:16:02.694Z,101153.25
2022-12-04T02:19:28.071Z,101151.63
2022-12-04T02:22:34.645Z,101154.97
2022-12-04T02:25:52.128Z,101152.81
2022-12-04T02:28:58.567Z,101153.56
2022-12-04T02:32:07.666Z,101159.72
2022-12-04T02:35:22.740Z,101155.41
2022-12-04T02:38:31.573Z,101157.56
2022-12-04T02:41:42.319Z,101154.47
2022-12-04T02:44:49.943Z,101144.72
2022-12-04T02:47:58.942Z,101158.53
2022-12-04T02:51:09.338Z,101158.66
2022-12-04T02:54:19.967Z,101154.81
2022-12-04T02:57:32.825Z,101165.00
2022-12-04T03:00:38.816Z,101156.72
2022-12-04T03:03:46.132Z,101156.72
2022-12-04T03:06:56.686Z,101155.28
2022-12-04T03:10:06.712Z,101149.00
2022-12-04T03:13:26.386Z,101151.06
2022-12-04T03:16:36.845Z,101145.69
2022-12-04T03:19:50.276Z,101149.91
2022-12-04T03:23:02.430Z,101143.56
2022-12-04T03:26:24.664Z,101145.25
2022-12-04T03:29:34.341Z,101145.84
2022-12-04T03:32:51.816Z,101147.97
2022-12-04T03:36:02.917Z,101143.97
2022-12-04T03:39:14.060Z,101149.88
2022-12-04T03:42:27.369Z,101144.72
2022-12-04T03:45:40.654Z,101133.59
2022-12-04T03:48:52.880Z,101140.69
2022-12-04T03:52:02.026Z,101146.00
2022-12-04T03:55:15.470Z,101143.59
2022-12-04T03:58:25.741Z,101147.81
2022-12-04T04:01:36.794Z,101156.03
2022-12-04T04:04:44.553Z,101150.59
2022-12-04T04:07:59.196Z,101148.44
2022-12-04T04:11:19.600Z,101150.78
2022-12-04T04:14:50.338Z,101154.25
2022-12-04T04:18:19.386Z,101144.06
2022-12-04T04:21:50.176Z,101151.50
2022-12-04T04:25:00.881Z,101161.44
2022-12-04T04:28:07.864Z,101158.41
2022-12-04T04:31:19.173Z,101152.59
2022-12-04T04:34:30.221Z,101152.06
2022-12-04T04:37:49.595Z,101162.34
2022-12-04T04:41:07.038Z,101160.66
2022-12-04T04:44:29.862Z,101163.19
2022-12-04T04:47:38.492Z,101156.28
2022-12-04T04:50:46.618Z,101158.69
2022-12-04T04:53:55.368Z,101149.81
2022-12-04T04:57:05.653Z,101157.19
2022-12-04T05:00:18.197Z,101150.72
2022-12-04T05:03:25.431Z,101153.59
2022-12-04T05:06:32.284Z,101160.00
2022-12-04T05:09:41.370Z,101159.16
2022-12-04T05:12:47.539Z,101160.84
2022-12-04T05:15:59.953Z,101160.56
2022-12-04T05:19:25.431Z,101152.31
2022-12-04T05:22:35.078Z,101155.87
2022-12-04T05:25:40.600Z,101147.16
2022-12-04T05:28:48.217Z,101149.53
2022-12-04T05:31:54.980Z,101145.44
2022-12-04T05:35:07.720Z,101158.66
2022-12-04T05:38:22.774Z,101158.84
2022-12-04T05:41:29.878Z,101158.84
2022-12-04T05:44:38.704Z,101150.97
2022-12-04T05:47:46.152Z,101145.72
2022-12-04T05:50:52.820Z,101146.03
2022-12-04T05:53:59.637Z,101141.38
2022-12-04T05:57:07.342Z,101145.50
2022-12-04T06:00:15.053Z,101148.72
2022-12-04T06:03:21.712Z,101160.09
2022-12-04T06:06:28.487Z,101159.37
2022-12-04T06:09:37.113Z,101156.50
2022-12-04T06:12:45.207Z,101148.75
2022-12-04T06:15:55.634Z,101158.44
2022-12-04T06:19:04.847Z,101157.88
2022-12-04T06:22:11.880Z,101159.37
2022-12-04T06:25:17.411Z,101171.88
2022-12-04T06:28:26.955Z,101164.06
2022-12-04T06:31:37.471Z,101174.91
2022-12-04T06:34:46.079Z,101169.19
2022-12-04T06:37:53.394Z,101160.78
2022-12-04T06:41:00.538Z,101167.22
2022-12-04T06:44:09.890Z,101173.28
2022-12-04T06:47:16.952Z,101169.75
2022-12-04T06:50:24.157Z,101169.37
2022-12-04T06:53:32.815Z,101170.88
2022-12-04T06:56:38.117Z,101164.72
2022-12-04T06:59:46.145Z,101166.41
2022-12-04T07:02:52.506Z,101158.44
2022-12-04T07:05:59.023Z,101169.03
2022-12-04T07:09:11.051Z,101164.50
2022-12-04T07:12:17.525Z,101162.09
2022-12-04T07:15:23.714Z,101170.03
2022-12-04T07:18:32.653Z,101174.25
2022-12-04T07:21:37.372Z,101165.44
2022-12-04T07:24:44.707Z,101178.25
2022-12-04T07:27:50.655Z,101180.50
2022-12-04T07:31:00.042Z,101177.22
2022-12-04T07:34:07.735Z,101172.28
2022-12-04T07:37:18.223Z,101179.00
2022-12-04T07:40:24.332Z,101172.44
2022-12-04T07:43:32.159Z,101171.31
2022-12-04T07:46:37.164Z,101170.09
2022-12-04T07:49:43.127Z,101165.97
2022-12-04T07:52:49.892Z,101167.62
2022-12-04T07:55:59.140Z,101179.31
2022-12-04T07:59:07.634Z,101177.03
2022-12-04T08:02:17.649Z,101168.19
2022-12-04T08:05:25.364Z,101172.91
2022-12-04T08:08:31.885Z,101168.66
2022-12-04T08:11:40.152Z,101168.00
2022-12-04T08:14:46.720Z,101166.22
2022-12-04T08:17:54.260Z,101164.59
2022-12-04T08:21:05.402Z,101180.59
2022-12-04T08:24:13.221Z,101181.66
2022-12-04T08:27:19.237Z,101175.09
2022-12-04T08:30:25.426Z,101162.13
2022-12-04T08:33:30.669Z,101151.97
2022-12-04T08:36:37.318Z,101155.66
2022-12-04T08:39:43.946Z,101169.41
2022-12-04T08:42:51.113Z,101164.47
2022-12-04T08:45:58.378Z,101168.75
2022-12-04T08:49:08.772Z,101162.97
2022-12-04T08:52:15.971Z,101159.31
2022-12-04T08:55:23.301Z,101161.84
2022-12-04T08:58:30.274Z,101168.13
2022-12-04T09:01:37.869Z,101169.81
2022-12-04T09:04:46.511Z,101177.53
2022-12-04T09:07:53.030Z,101176.06
2022-12-04T09:11:05.548Z,101176.16
2022-12-04T09:14:12.117Z,101171.63
2022-12-04T09:17:18.672Z,101163.47
2022-12-04T09:20:27.354Z,101161.44
2022-12-04T09:23:34.703Z,101163.03
2022-12-04T09:26:41.806Z,101155.94
2022-12-04T09:29:50.657Z,101164.22
2022-12-04T09:32:58.906Z,101157.88
2022-12-04T09:36:04.891Z,101151.19
2022-12-04T09:39:11.650Z,101149.09
2022-12-04T09:42:20.993Z,101147.12
2022-12-04T09:45:28.186Z,101143.25
2022-12-04T09:48:35.627Z,101135.50
2022-12-04T09:51:45.407Z,101131.72
2022-12-04T09:54:52.942Z,101125.66
2022-12-04T09:58:02.148Z,101125.19
2022-12-04T10:01:07.566Z,101118.37
2022-12-04T10:04:16.618Z,101124.34
2022-12-04T10:07:27.808Z,101120.91
2022-12-04T10:10:45.675Z,101108.19
2022-12-04T10:13:52.868Z,101101.28
2022-12-04T10:17:05.038Z,101091.13
2022-12-04T10:20:29.849Z,101098.34
2022-12-04T10:23:36.971Z,101088.63
2022-12-04T10:26:46.209Z,101087.84
2022-12-04T10:29:56.623Z,101082.06
2022-12-04T10:33:11.521Z,101077.19
2022-12-04T10:36:19.000Z,101078.16
2022-12-04T10:39:35.509Z,101077.97
2022-12-04T10:42:44.254Z,101067.13
2022-12-04T10:45:49.663Z,101057.97
2022-12-04T10:49:03.082Z,101059.44
2022-12-04T10:52:11.845Z,101054.78
2022-12-04T10:55:29.805Z,101046.87
2022-12-04T10:58:36.687Z,101040.75
2022-12-04T11:01:43.657Z,101043.41
2022-12-04T11:04:58.984Z,101035.38
2022-12-04T11:08:06.138Z,101030.91
2022-12-04T11:11:17.717Z,101019.03
2022-12-04T11:14:27.076Z,101029.25
2022-12-04T11:17:33.404Z,101022.94
2022-12-04T11:20:45.517Z,101011.75
2022-12-04T11:23:53.269Z,101011.13
2022-12-04T11:27:02.520Z,101001.03
2022-12-04T11:30:17.191Z,100990.38
2022-12-04T11:33:27.965Z,100993.75
2022-12-04T11:36:36.164Z,101003.47
2022-12-04T11:39:43.405Z,101000.47
2022-12-04T11:43:00.067Z,100994.94
2022-12-04T11:46:08.467Z,100992.31
2022-12-04T11:49:24.325Z,100976.66
2022-12-04T11:52:53.099Z,100979.97
2022-12-04T11:56:07.962Z,100967.38
2022-12-04T11:59:14.851Z,100963.53
2022-12-04T12:02:29.303Z,100960.25
2022-12-04T12:05:41.228Z,100961.81
2022-12-04T12:08:51.341Z,100949.56
2022-12-04T12:11:55.446Z,100952.66
2022-12-04T12:15:06.278Z,100951.13
2022-12-04T12:18:14.472Z,100952.22
2022-12-04T12:21:29.096Z,100958.47
2022-12-04T12:24:37.879Z,100966.22
2022-12-04T12:27:43.858Z,100964.56
2022-12-04T12:31:16.047Z,100963.09
2022-12-04T12:34:36.318Z,100961.53
2022-12-04T12:37:49.158Z,100957.69
2022-12-04T12:40:54.384Z,100969.06
2022-12-04T12:44:12.841Z,100962.22
2022-12-04T12:47:21.462Z,100968.22
2022-12-04T12:50:46.339Z,100960.00
2022-12-04T12:53:55.571Z,100950.50
2022-12-04T12:57:18.129Z,100960.72
2022-12-04T13:00:23.405Z,100956.94
2022-12-04T13:03:42.941Z,100947.22
2022-12-04T13:06:50.179Z,100940.97
2022-12-04T13:09:59.078Z,100939.28
2022-12-04T13:13:15.889Z,100950.34
2022-12-04T13:16:24.516Z,100943.97
2022-12-04T13:19:35.768Z,100948.13
2022-12-04T13:22:51.312Z,100943.97
2022-12-04T13:26:05.335Z,100935.78
2022-12-04T13:29:18.180Z,100945.41
2022-12-04T13:32:42.494Z,100949.44
2022-12-04T13:35:51.216Z,100955.03
2022-12-04T13:38:58.460Z,100964.31
2022-12-04T13:42:06.969Z,100971.97
2022-12-04T13:45:25.241Z,100963.72
2022-12-04T13:48:33.177Z,100962.34
2022-12-04T13:51:42.782Z,100961.69
2022-12-04T13:54:58.990Z,100955.56
2022-12-04T13:58:05.749Z,100958.69
2022-12-04T14:01:31.478Z,100952.28
2022-12-04T14:04:46.248Z,100955.19
2022-12-04T14:08:07.328Z,100966.25
2022-12-04T14:11:21.675Z,100976.97
2022-12-04T14:14:31.048Z,100978.47
2022-12-04T14:17:41.634Z,100975.66
2022-12-04T14:21:00.371Z,100978.59
2022-12-04T14:24:19.287Z,100974.00
2022-12-04T14:27:52.728Z,100984.09
2022-12-04T14:31:06.611Z,100983.41
2022-12-04T14:34:22.600Z,100975.78
2022-12-04T14:37:30.838Z,100978.41
2022-12-04T14:40:40.271Z,100980.88
2022-12-04T14:43:52.164Z,100977.38
2022-12-04T14:47:00.532Z,100973.06
2022-12-04T14:50:30.476Z,100975.97
2022-12-04T14:53:36.991Z,100975.66
2022-12-04T14:56:59.997Z,100975.66
2022-12-04T15:00:06.826Z,100974.50
2022-12-04T15:03:15.473Z,100981.44
2022-12-04T15:06:27.245Z,100987.56
2022-12-04T15:09:52.708Z,100987.13
2022-12-04T15:12:58.638Z,100989.91
2022-12-04T15:16:10.725Z,100984.75
2022-12-04T15:19:19.188Z,100986.94
2022-12-04T15:22:29.822Z,100986.81
2022-12-04T15:25:41.865Z,100990.41
2022-12-04T15:28:59.157Z,100984.31
2022-12-04T15:32:13.032Z,100979.87
2022-12-04T15:35:22.917Z,100991.69
2022-12-04T15:38:29.129Z,100989.63
2022-12-04T15:41:39.244Z,100984.88
2022-12-04T15:44:55.319Z,100991.59
2022-12-04T15:48:02.875Z,100989.50
2022-12-04T15:51:11.485Z,100992.78
2022-12-04T15:54:26.960Z,100988.34
2022-12-04T15:57:38.810Z,100995.78
2022-12-04T16:00:46.890Z,100991.97
2022-12-04T16:03:55.222Z,100992.66
2022-12-04T16:07:00.260Z,100989.56
2022-12-04T16:10:21.980Z,100990.97
2022-12-04T16:13:28.840Z,101002.25
2022-12-04T16:16:42.653Z,100997.59
2022-12-04T16:19:48.856Z,100991.12
2022-12-04T16:22:56.260Z,100993.53
2022-12-04T16:26:00.764Z,100995.22
2022-12-04T16:29:07.896Z,100999.94
2022-12-04T16:32:16.041Z,100987.50
2022-12-04T16:35:22.493Z,100996.63
2022-12-04T16:38:28.897Z,100994.69
2022-12-04T16:41:37.750Z,100995.06
2022-12-04T16:44:44.037Z,100991.72
2022-12-04T16:47:52.996Z,100990.06
2022-12-04T16:51:00.516Z,100988.12
2022-12-04T16:54:08.732Z,100998.28
2022-12-04T16:57:17.047Z,100995.91
2022-12-04T17:00:24.062Z,100991.69
2022-12-04T17:03:34.571Z,100996.44
2022-12-04T17:06:41.854Z,100990.00
2022-12-04T17:09:49.741Z,100997.91
2022-12-04T17:12:56.612Z,100989.31
2022-12-04T17:16:03.870Z,100991.47
2022-12-04T17:19:15.359Z,100995.16
2022-12-04T17:22:29.789Z,100998.34
2022-12-04T17:25:37.126Z,100999.47
2022-12-04T17:28:45.669Z,101001.16
2022-12-04T17:31:54.690Z,101007.94
2022-12-04T17:35:04.399Z,101007.72
2022-12-04T17:38:11.842Z,101008.91
2022-12-04T17:41:17.169Z,101006.53
2022-12-04T17:44:25.755Z,101007.38
2022-12-04T17:47:30.859Z,101007.50
2022-12-04T17:50:35.081Z,101007.75
2022-12-04T17:53:38.979Z,101013.78
2022-12-04T17:56:48.196Z,101019.53
2022-12-04T17:59:55.855Z,101015.25
2022-12-04T18:03:04.624Z,101013.72
2022-12-04T18:06:21.835Z,101011.28
2022-12-04T18:09:30.655Z,101006.37
2022-12-04T18:12:37.158Z,101001.59
2022-12-04T18:15:43.361Z,101012.41
2022-12-04T18:18:47.937Z,101016.72
2022-12-04T18:21:53.001Z,101017.44
2022-12-04T18:24:57.693Z,101030.37
2022-12-04T18:28:02.938Z,101020.78
2022-12-04T18:31:08.047Z,101027.97
2022-12-04T18:34:12.997Z,101022.59
2022-12-04T18:37:19.000Z,101024.75
2022-12-04T18:40:23.484Z,101028.12
2022-12-04T18:43:27.554Z,101030.75
2022-12-04T18:46:32.017Z,101041.28
2022-12-04T18:49:38.389Z,101043.34
2022-12-04T18:52:41.487Z,101031.97
2022-12-04T18:55:44.980Z,101040.91
2022-12-04T18:58:49.239Z,101039.88
2022-12-04T19:01:54.816Z,101025.22
2022-12-04T19:04:59.805Z,101028.69
2022-12-04T19:08:06.030Z,101030.00
2022-12-04T19:11:12.427Z,101019.09
2022-12-04T19:14:23.496Z,101022.59
2022-12-04T19:17:29.282Z,101023.06
2022-12-04T19:20:37.454Z,101028.50
2022-12-04T19:23:43.414Z,101033.16
2022-12-04T19:26:51.233Z,101032.81
2022-12-04T19:29:56.407Z,101034.09
2022-12-04T19:33:04.592Z,101028.59
2022-12-04T19:36:08.757Z,101036.38
2022-12-04T19:39:13.477Z,101036.25
2022-12-04T19:42:17.446Z,101035.44
2022-12-04T19:45:23.988Z,101033.63
2022-12-04T19:48:30.507Z,101033.97
2022-12-04T19:51:39.819Z,101035.19
2022-12-04T19:54:46.203Z,101032.72
2022-12-04T19:57:54.636Z,101024.66
2022-12-04T20:01:00.858Z,101040.59
2022-12-04T20:04:10.515Z,101035.34
2022-12-04T20:07:18.670Z,101027.06
2022-12-04T20:10:29.132Z,101034.50
2022-12-04T20:13:36.279Z,101033.66
2022-12-04T20:16:42.383Z,101037.81
2022-12-04T20:19:46.905Z,101043.47
2022-12-04T20:22:49.982Z,101037.50
2022-12-04T20:25:52.764Z,101046.47
2022-12-04T20:28:59.513Z,101043.94
2022-12-04T20:32:04.809Z,101046.72
2022-12-04T20:35:09.353Z,101049.22
2022-12-04T20:38:16.054Z,101050.28
2022-12-04T20:41:22.651Z,101054.22
2022-12-04T20:44:27.224Z,101056.16
2022-12-04T20:47:35.398Z,101064.16
2022-12-04T20:50:46.700Z,101062.75
2022-12-04T20:53:55.183Z,101066.44
2022-12-04T20:57:02.599Z,101064.06
2022-12-04T21:00:07.733Z,101066.44
2022-12-04T21:03:15.196Z,101070.25
2022-12-04T21:06:28.432Z,101064.06
2022-12-04T21:09:39.431Z,101061.88
2022-12-04T21:13:04.023Z,101062.88
2022-12-04T21:16:09.579Z,101055.66
2022-12-04T21:19:19.445Z,101056.12
2022-12-04T21:22:30.042Z,101068.13
2022-12-04T21:25:40.033Z,101062.72
2022-12-04T21:28:49.598Z,101059.03
2022-12-04T21:31:57.341Z,101056.63
2022-12-04T21:35:02.133Z,101069.31
2022-12-04T21:38:07.845Z,101064.75
2022-12-04T21:41:33.422Z,101053.53
2022-12-04T21:44:41.099Z,101064.16
2022-12-04T21:47:45.727Z,101070.38
2022-12-04T21:50:49.588Z,101072.28
2022-12-04T21:53:53.726Z,101066.19
2022-12-04T21:56:58.238Z,101056.63
2022-12-04T22:00:01.636Z,101062.94
2022-12-04T22:03:07.021Z,101065.47
2022-12-04T22:06:10.856Z,101068.56
2022-12-04T22:09:15.370Z,101069.88
2022-12-04T22:12:48.086Z,101065.81
2022-12-04T22:15:45.913Z,101075.94
2022-12-04T22:18:50.175Z,101073.81
2022-12-04T22:21:57.466Z,101073.09
2022-12-04T22:25:03.148Z,101068.31
2022-12-04T22:28:08.255Z,101069.03
2022-12-04T22:31:16.130Z,101071.19
2022-12-04T22:34:20.671Z,101064.34
2022-12-04T22:37:26.700Z,101058.72
2022-12-04T22:40:31.406Z,101062.66
2022-12-04T22:43:40.829Z,101065.19
2022-12-04T22:46:45.539Z,101066.28
2022-12-04T22:49:50.555Z,101065.53
2022-12-04T22:52:54.721Z,101058.72
2022-12-04T22:56:06.657Z,101057.53
2022-12-04T22:59:12.866Z,101050.13
2022-12-04T23:02:19.835Z,101064.09
2022-12-04T23:05:26.644Z,101059.09
2022-12-04T23:08:32.649Z,101063.72
2022-12-04T23:11:39.849Z,101062.53
2022-12-04T23:14:48.224Z,101058.59
2022-12-04T23:17:53.651Z,101059.41
2022-12-04T23:21:07.328Z,101064.91
2022-12-04T23:24:14.020Z,101053.34
2022-12-04T23:27:20.621Z,101048.88
2022-12-04T23:30:32.746Z,101049.22
2022-12-04T23:33:42.605Z,101038.84
2022-12-04T23:36:49.910Z,101050.56
2022-12-04T23:40:02.645Z,101043.97
2022-12-04T23:43:08.834Z,101041.69
2022-12-04T23:46:14.299Z,101052.22
2022-12-04T23:49:19.926Z,101055.91
2022-12-04T23:52:25.552Z,101058.78
2022-12-04T23:55:34.328Z,101054.50
2022-12-04T23:58:42.312Z,101056.78
